sensor_id;sensor_type;location;lat;lon;timestamp;P1;durP1;ratioP1;P2;durP2;ratioP2
2041;SDS011;1026;51.460;7.252;2023-03-01T00:00:14;4.20;;;3.87;;
2041;SDS011;1026;51.460;7.252;2023-03-01T00:02:40;3.13;;;2.90;;
2041;SDS011;1026;51.460;7.252;2023-03-01T00:05:05;4.47;;;3.50;;
2041;SDS011;1026;51.460;7.252;2023-03-01T00:07:32;5.37;;;3.80;;
2041;SDS011;1026;51.460;7.252;2023-03-01T00:09:58;3.87;;;3.37;;
2041;SDS011;1026;51.460;7.252;2023-03-01T00:12:23;8.77;;;6.13;;
2041;SDS011;1026;51.460;7.252;2023-03-01T00:14:49;3.80;;;3.40;;
2041;SDS011;1026;51.460;7.252;2023-03-01T00:17:15;3.90;;;3.30;;
2041;SDS011;1026;51.460;7.252;2023-03-01T00:19:41;5.07;;;3.37;;
2041;SDS011;1026;51.460;7.252;2023-03-01T00:22:06;4.97;;;4.33;;
2041;SDS011;1026;51.460;7.252;2023-03-01T00:24:32;7.10;;;4.07;;
2041;SDS011;1026;51.460;7.252;2023-03-01T00:26:58;5.00;;;3.27;;
2041;SDS011;1026;51.460;7.252;2023-03-01T00:29:24;4.30;;;3.73;;
2041;SDS011;1026;51.460;7.252;2023-03-01T00:31:50;4.80;;;3.80;;
2041;SDS011;1026;51.460;7.252;2023-03-01T00:34:15;4.73;;;3.87;;
2041;SDS011;1026;51.460;7.252;2023-03-01T00:36:41;3.87;;;3.50;;
2041;SDS011;1026;51.460;7.252;2023-03-01T00:39:09;4.07;;;3.50;;
2041;SDS011;1026;51.460;7.252;2023-03-01T00:41:37;4.60;;;4.20;;
2041;SDS011;1026;51.460;7.252;2023-03-01T00:44:03;4.27;;;3.87;;
2041;SDS011;1026;51.460;7.252;2023-03-01T00:46:29;4.40;;;4.00;;
2041;SDS011;1026;51.460;7.252;2023-03-01T00:48:56;4.83;;;4.07;;
2041;SDS011;1026;51.460;7.252;2023-03-01T00:51:23;4.57;;;4.17;;
2041;SDS011;1026;51.460;7.252;2023-03-01T00:53:51;5.00;;;4.47;;
2041;SDS011;1026;51.460;7.252;2023-03-01T00:56:18;4.60;;;3.73;;
2041;SDS011;1026;51.460;7.252;2023-03-01T00:58:44;5.40;;;4.27;;
2041;SDS011;1026;51.460;7.252;2023-03-01T01:01:11;4.30;;;3.80;;
2041;SDS011;1026;51.460;7.252;2023-03-01T01:03:46;4.57;;;4.17;;
2041;SDS011;1026;51.460;7.252;2023-03-01T01:06:16;5.03;;;4.50;;
2041;SDS011;1026;51.460;7.252;2023-03-01T01:08:44;4.17;;;3.23;;
2041;SDS011;1026;51.460;7.252;2023-03-01T01:11:10;4.70;;;3.67;;
2041;SDS011;1026;51.460;7.252;2023-03-01T01:13:37;4.73;;;4.27;;
2041;SDS011;1026;51.460;7.252;2023-03-01T01:16:03;5.40;;;4.20;;
2041;SDS011;1026;51.460;7.252;2023-03-01T01:18:29;5.40;;;3.83;;
2041;SDS011;1026;51.460;7.252;2023-03-01T01:20:55;5.77;;;5.27;;
2041;SDS011;1026;51.460;7.252;2023-03-01T01:23:20;4.90;;;4.33;;
2041;SDS011;1026;51.460;7.252;2023-03-01T01:25:46;4.50;;;4.00;;
2041;SDS011;1026;51.460;7.252;2023-03-01T01:28:18;7.10;;;5.17;;
2041;SDS011;1026;51.460;7.252;2023-03-01T01:30:44;5.10;;;4.23;;
2041;SDS011;1026;51.460;7.252;2023-03-01T01:33:09;3.80;;;3.50;;
2041;SDS011;1026;51.460;7.252;2023-03-01T01:35:35;5.60;;;4.97;;
2041;SDS011;1026;51.460;7.252;2023-03-01T01:38:01;6.27;;;5.40;;
2041;SDS011;1026;51.460;7.252;2023-03-01T01:40:26;4.40;;;4.00;;
2041;SDS011;1026;51.460;7.252;2023-03-01T01:42:52;4.60;;;4.17;;
2041;SDS011;1026;51.460;7.252;2023-03-01T01:48:05;6.77;;;4.10;;
2041;SDS011;1026;51.460;7.252;2023-03-01T01:50:35;4.80;;;3.97;;
2041;SDS011;1026;51.460;7.252;2023-03-01T01:53:09;6.23;;;4.67;;
2041;SDS011;1026;51.460;7.252;2023-03-01T01:55:39;4.83;;;4.33;;
2041;SDS011;1026;51.460;7.252;2023-03-01T01:58:08;5.20;;;3.70;;
2041;SDS011;1026;51.460;7.252;2023-03-01T02:00:38;4.00;;;3.70;;
2041;SDS011;1026;51.460;7.252;2023-03-01T02:03:07;5.80;;;4.63;;
2041;SDS011;1026;51.460;7.252;2023-03-01T02:08:23;6.63;;;5.00;;
2041;SDS011;1026;51.460;7.252;2023-03-01T02:10:51;4.70;;;4.23;;
2041;SDS011;1026;51.460;7.252;2023-03-01T02:13:19;7.30;;;5.30;;
2041;SDS011;1026;51.460;7.252;2023-03-01T02:15:45;6.17;;;5.20;;
2041;SDS011;1026;51.460;7.252;2023-03-01T02:18:12;6.13;;;5.53;;
2041;SDS011;1026;51.460;7.252;2023-03-01T02:23:23;5.33;;;4.80;;
2041;SDS011;1026;51.460;7.252;2023-03-01T02:28:25;5.77;;;4.20;;
2041;SDS011;1026;51.460;7.252;2023-03-01T02:30:54;6.03;;;4.33;;
2041;SDS011;1026;51.460;7.252;2023-03-01T02:33:36;5.63;;;4.67;;
2041;SDS011;1026;51.460;7.252;2023-03-01T02:36:04;4.60;;;3.70;;
2041;SDS011;1026;51.460;7.252;2023-03-01T02:38:33;4.90;;;3.97;;
2041;SDS011;1026;51.460;7.252;2023-03-01T02:40:59;4.93;;;4.43;;
2041;SDS011;1026;51.460;7.252;2023-03-01T02:43:29;5.47;;;4.13;;
2041;SDS011;1026;51.460;7.252;2023-03-01T02:45:58;5.23;;;4.30;;
2041;SDS011;1026;51.460;7.252;2023-03-01T02:48:26;5.57;;;4.47;;
2041;SDS011;1026;51.460;7.252;2023-03-01T02:53:38;5.60;;;5.07;;
2041;SDS011;1026;51.460;7.252;2023-03-01T02:56:13;6.10;;;5.50;;
2041;SDS011;1026;51.460;7.252;2023-03-01T02:58:41;6.03;;;4.13;;
2041;SDS011;1026;51.460;7.252;2023-03-01T03:01:11;4.40;;;4.00;;
2041;SDS011;1026;51.460;7.252;2023-03-01T03:03:39;5.20;;;4.80;;
2041;SDS011;1026;51.460;7.252;2023-03-01T03:06:06;9.43;;;5.30;;
2041;SDS011;1026;51.460;7.252;2023-03-01T03:08:31;6.40;;;4.50;;
2041;SDS011;1026;51.460;7.252;2023-03-01T03:10:57;6.00;;;4.60;;
2041;SDS011;1026;51.460;7.252;2023-03-01T03:13:22;6.37;;;5.27;;
2041;SDS011;1026;51.460;7.252;2023-03-01T03:15:53;6.07;;;4.77;;
2041;SDS011;1026;51.460;7.252;2023-03-01T03:18:20;4.47;;;4.07;;
2041;SDS011;1026;51.460;7.252;2023-03-01T03:20:46;5.43;;;4.37;;
2041;SDS011;1026;51.460;7.252;2023-03-01T03:23:12;6.60;;;5.03;;
2041;SDS011;1026;51.460;7.252;2023-03-01T03:25:38;5.13;;;4.67;;
2041;SDS011;1026;51.460;7.252;2023-03-01T03:28:05;6.60;;;4.90;;
2041;SDS011;1026;51.460;7.252;2023-03-01T03:30:36;5.17;;;4.50;;
2041;SDS011;1026;51.460;7.252;2023-03-01T03:33:04;6.03;;;5.40;;
2041;SDS011;1026;51.460;7.252;2023-03-01T03:35:32;6.23;;;5.63;;
2041;SDS011;1026;51.460;7.252;2023-03-01T03:38:00;5.43;;;4.90;;
2041;SDS011;1026;51.460;7.252;2023-03-01T03:40:38;6.93;;;4.57;;
2041;SDS011;1026;51.460;7.252;2023-03-01T03:43:07;5.50;;;4.70;;
2041;SDS011;1026;51.460;7.252;2023-03-01T03:45:35;6.33;;;4.20;;
2041;SDS011;1026;51.460;7.252;2023-03-01T03:48:02;6.07;;;5.03;;
2041;SDS011;1026;51.460;7.252;2023-03-01T03:50:29;6.73;;;5.33;;
2041;SDS011;1026;51.460;7.252;2023-03-01T03:52:55;7.47;;;5.30;;
2041;SDS011;1026;51.460;7.252;2023-03-01T03:55:21;6.63;;;5.50;;
2041;SDS011;1026;51.460;7.252;2023-03-01T03:57:47;4.93;;;4.40;;
2041;SDS011;1026;51.460;7.252;2023-03-01T04:00:19;4.73;;;4.30;;
2041;SDS011;1026;51.460;7.252;2023-03-01T04:02:48;6.10;;;4.83;;
2041;SDS011;1026;51.460;7.252;2023-03-01T04:05:16;6.20;;;5.17;;
2041;SDS011;1026;51.460;7.252;2023-03-01T04:07:43;6.90;;;5.23;;
2041;SDS011;1026;51.460;7.252;2023-03-01T04:10:11;5.87;;;5.30;;
2041;SDS011;1026;51.460;7.252;2023-03-01T04:12:39;6.47;;;4.60;;
2041;SDS011;1026;51.460;7.252;2023-03-01T04:15:06;6.03;;;4.80;;
2041;SDS011;1026;51.460;7.252;2023-03-01T04:17:40;6.93;;;5.27;;
2041;SDS011;1026;51.460;7.252;2023-03-01T04:20:08;5.70;;;4.80;;
2041;SDS011;1026;51.460;7.252;2023-03-01T04:22:36;6.30;;;5.47;;
2041;SDS011;1026;51.460;7.252;2023-03-01T04:25:02;6.07;;;4.80;;
2041;SDS011;1026;51.460;7.252;2023-03-01T04:27:29;4.70;;;4.30;;
2041;SDS011;1026;51.460;7.252;2023-03-01T04:29:55;6.80;;;5.93;;
2041;SDS011;1026;51.460;7.252;2023-03-01T04:32:21;6.10;;;5.60;;
2041;SDS011;1026;51.460;7.252;2023-03-01T04:34:46;5.03;;;4.53;;
2041;SDS011;1026;51.460;7.252;2023-03-01T04:37:12;5.87;;;5.33;;
2041;SDS011;1026;51.460;7.252;2023-03-01T04:39:38;5.43;;;4.83;;
2041;SDS011;1026;51.460;7.252;2023-03-01T04:42:10;5.90;;;5.10;;
2041;SDS011;1026;51.460;7.252;2023-03-01T04:44:36;6.23;;;5.60;;
2041;SDS011;1026;51.460;7.252;2023-03-01T04:47:02;7.30;;;4.63;;
2041;SDS011;1026;51.460;7.252;2023-03-01T04:49:28;4.63;;;4.20;;
2041;SDS011;1026;51.460;7.252;2023-03-01T04:51:54;4.50;;;4.10;;
2041;SDS011;1026;51.460;7.252;2023-03-01T04:54:19;5.17;;;4.67;;
2041;SDS011;1026;51.460;7.252;2023-03-01T04:56:45;6.23;;;5.07;;
2041;SDS011;1026;51.460;7.252;2023-03-01T04:59:11;5.07;;;4.50;;
2041;SDS011;1026;51.460;7.252;2023-03-01T05:01:37;8.53;;;5.90;;
2041;SDS011;1026;51.460;7.252;2023-03-01T05:04:11;7.57;;;4.90;;
2041;SDS011;1026;51.460;7.252;2023-03-01T05:06:38;5.60;;;4.77;;
2041;SDS011;1026;51.460;7.252;2023-03-01T05:09:10;9.90;;;4.90;;
2041;SDS011;1026;51.460;7.252;2023-03-01T05:11:36;5.50;;;4.93;;
2041;SDS011;1026;51.460;7.252;2023-03-01T05:14:02;6.03;;;5.43;;
2041;SDS011;1026;51.460;7.252;2023-03-01T05:16:29;6.33;;;4.93;;
2041;SDS011;1026;51.460;7.252;2023-03-01T05:18:56;5.37;;;4.47;;
2041;SDS011;1026;51.460;7.252;2023-03-01T05:21:22;6.63;;;4.87;;
2041;SDS011;1026;51.460;7.252;2023-03-01T05:23:48;7.43;;;5.67;;
2041;SDS011;1026;51.460;7.252;2023-03-01T05:26:14;6.17;;;5.50;;
2041;SDS011;1026;51.460;7.252;2023-03-01T05:28:42;5.80;;;4.93;;
2041;SDS011;1026;51.460;7.252;2023-03-01T05:31:08;5.60;;;4.63;;
2041;SDS011;1026;51.460;7.252;2023-03-01T05:33:36;5.20;;;4.70;;
2041;SDS011;1026;51.460;7.252;2023-03-01T05:36:03;7.83;;;5.97;;
2041;SDS011;1026;51.460;7.252;2023-03-01T05:38:29;6.90;;;5.30;;
2041;SDS011;1026;51.460;7.252;2023-03-01T05:40:55;4.03;;;3.73;;
2041;SDS011;1026;51.460;7.252;2023-03-01T05:43:20;5.40;;;4.90;;
2041;SDS011;1026;51.460;7.252;2023-03-01T05:45:46;5.40;;;4.90;;
2041;SDS011;1026;51.460;7.252;2023-03-01T05:48:12;5.63;;;5.10;;
2041;SDS011;1026;51.460;7.252;2023-03-01T05:50:39;8.97;;;4.77;;
2041;SDS011;1026;51.460;7.252;2023-03-01T05:53:16;6.33;;;4.70;;
2041;SDS011;1026;51.460;7.252;2023-03-01T05:55:45;6.23;;;5.50;;
2041;SDS011;1026;51.460;7.252;2023-03-01T05:58:13;13.27;;;5.50;;
2041;SDS011;1026;51.460;7.252;2023-03-01T06:00:41;5.80;;;4.40;;
2041;SDS011;1026;51.460;7.252;2023-03-01T06:03:09;6.33;;;5.23;;
2041;SDS011;1026;51.460;7.252;2023-03-01T06:05:37;5.90;;;5.20;;
2041;SDS011;1026;51.460;7.252;2023-03-01T06:08:04;7.37;;;5.67;;
2041;SDS011;1026;51.460;7.252;2023-03-01T06:10:29;6.60;;;5.03;;
2041;SDS011;1026;51.460;7.252;2023-03-01T06:12:55;8.07;;;5.80;;
2041;SDS011;1026;51.460;7.252;2023-03-01T06:15:21;8.60;;;5.77;;
2041;SDS011;1026;51.460;7.252;2023-03-01T06:17:48;8.30;;;6.20;;
2041;SDS011;1026;51.460;7.252;2023-03-01T06:20:17;5.80;;;5.07;;
2041;SDS011;1026;51.460;7.252;2023-03-01T06:22:44;7.07;;;5.60;;
2041;SDS011;1026;51.460;7.252;2023-03-01T06:25:11;5.83;;;5.20;;
2041;SDS011;1026;51.460;7.252;2023-03-01T06:27:38;7.80;;;4.97;;
2041;SDS011;1026;51.460;7.252;2023-03-01T06:30:05;6.53;;;5.47;;
2041;SDS011;1026;51.460;7.252;2023-03-01T06:32:32;7.30;;;5.60;;
2041;SDS011;1026;51.460;7.252;2023-03-01T06:34:57;7.63;;;5.90;;
2041;SDS011;1026;51.460;7.252;2023-03-01T06:37:23;11.77;;;6.60;;
2041;SDS011;1026;51.460;7.252;2023-03-01T06:39:50;5.63;;;5.13;;
2041;SDS011;1026;51.460;7.252;2023-03-01T06:42:16;5.57;;;5.07;;
2041;SDS011;1026;51.460;7.252;2023-03-01T06:44:42;6.23;;;5.60;;
2041;SDS011;1026;51.460;7.252;2023-03-01T06:47:08;6.20;;;5.20;;
2041;SDS011;1026;51.460;7.252;2023-03-01T06:49:34;8.10;;;5.73;;
2041;SDS011;1026;51.460;7.252;2023-03-01T06:52:00;7.37;;;5.40;;
2041;SDS011;1026;51.460;7.252;2023-03-01T06:54:25;5.83;;;5.27;;
2041;SDS011;1026;51.460;7.252;2023-03-01T06:56:51;6.07;;;5.47;;
2041;SDS011;1026;51.460;7.252;2023-03-01T06:59:17;7.90;;;5.60;;
2041;SDS011;1026;51.460;7.252;2023-03-01T07:01:44;7.40;;;5.47;;
2041;SDS011;1026;51.460;7.252;2023-03-01T07:04:10;7.30;;;5.67;;
2041;SDS011;1026;51.460;7.252;2023-03-01T07:06:37;9.17;;;6.20;;
2041;SDS011;1026;51.460;7.252;2023-03-01T07:09:03;6.07;;;4.80;;
2041;SDS011;1026;51.460;7.252;2023-03-01T07:11:28;5.33;;;4.90;;
2041;SDS011;1026;51.460;7.252;2023-03-01T07:13:54;6.77;;;6.10;;
2041;SDS011;1026;51.460;7.252;2023-03-01T07:16:20;8.00;;;6.43;;
2041;SDS011;1026;51.460;7.252;2023-03-01T07:18:46;10.47;;;6.17;;
2041;SDS011;1026;51.460;7.252;2023-03-01T07:21:12;6.50;;;5.60;;
2041;SDS011;1026;51.460;7.252;2023-03-01T07:23:39;7.50;;;5.87;;
2041;SDS011;1026;51.460;7.252;2023-03-01T07:26:18;6.10;;;5.50;;
2041;SDS011;1026;51.460;7.252;2023-03-01T07:28:51;5.20;;;4.70;;
2041;SDS011;1026;51.460;7.252;2023-03-01T07:31:16;8.90;;;5.50;;
2041;SDS011;1026;51.460;7.252;2023-03-01T07:33:42;7.10;;;5.57;;
2041;SDS011;1026;51.460;7.252;2023-03-01T07:36:07;6.27;;;5.67;;
2041;SDS011;1026;51.460;7.252;2023-03-01T07:38:34;7.00;;;5.20;;
2041;SDS011;1026;51.460;7.252;2023-03-01T07:41:00;6.07;;;5.47;;
2041;SDS011;1026;51.460;7.252;2023-03-01T07:43:28;7.17;;;5.67;;
2041;SDS011;1026;51.460;7.252;2023-03-01T07:45:54;5.77;;;4.90;;
2041;SDS011;1026;51.460;7.252;2023-03-01T07:48:23;10.80;;;6.07;;
2041;SDS011;1026;51.460;7.252;2023-03-01T07:50:49;6.53;;;5.23;;
2041;SDS011;1026;51.460;7.252;2023-03-01T07:53:14;6.77;;;5.00;;
2041;SDS011;1026;51.460;7.252;2023-03-01T07:55:40;5.97;;;5.40;;
2041;SDS011;1026;51.460;7.252;2023-03-01T07:58:06;5.77;;;5.17;;
2041;SDS011;1026;51.460;7.252;2023-03-01T08:00:31;7.00;;;6.30;;
2041;SDS011;1026;51.460;7.252;2023-03-01T08:02:58;6.40;;;5.77;;
2041;SDS011;1026;51.460;7.252;2023-03-01T08:05:25;7.67;;;5.40;;
2041;SDS011;1026;51.460;7.252;2023-03-01T08:07:51;7.43;;;6.50;;
2041;SDS011;1026;51.460;7.252;2023-03-01T08:10:17;8.43;;;6.87;;
2041;SDS011;1026;51.460;7.252;2023-03-01T08:12:43;10.00;;;8.00;;
2041;SDS011;1026;51.460;7.252;2023-03-01T08:15:08;10.27;;;7.70;;
2041;SDS011;1026;51.460;7.252;2023-03-01T08:17:34;11.27;;;9.20;;
2041;SDS011;1026;51.460;7.252;2023-03-01T08:20:00;8.17;;;7.33;;
2041;SDS011;1026;51.460;7.252;2023-03-01T08:22:26;13.33;;;9.13;;
2041;SDS011;1026;51.460;7.252;2023-03-01T08:24:51;11.13;;;8.63;;
2041;SDS011;1026;51.460;7.252;2023-03-01T08:27:17;11.40;;;7.90;;
2041;SDS011;1026;51.460;7.252;2023-03-01T08:29:42;14.03;;;8.37;;
2041;SDS011;1026;51.460;7.252;2023-03-01T08:32:08;11.27;;;8.73;;
2041;SDS011;1026;51.460;7.252;2023-03-01T08:34:34;9.90;;;8.20;;
2041;SDS011;1026;51.460;7.252;2023-03-01T08:37:00;9.93;;;8.93;;
2041;SDS011;1026;51.460;7.252;2023-03-01T08:39:26;15.50;;;8.70;;
2041;SDS011;1026;51.460;7.252;2023-03-01T08:41:52;12.23;;;9.03;;
2041;SDS011;1026;51.460;7.252;2023-03-01T08:44:18;9.93;;;8.70;;
2041;SDS011;1026;51.460;7.252;2023-03-01T08:46:45;10.37;;;7.83;;
2041;SDS011;1026;51.460;7.252;2023-03-01T08:49:14;9.20;;;8.23;;
2041;SDS011;1026;51.460;7.252;2023-03-01T08:51:41;11.70;;;8.73;;
2041;SDS011;1026;51.460;7.252;2023-03-01T08:54:09;11.60;;;8.67;;
2041;SDS011;1026;51.460;7.252;2023-03-01T08:56:38;11.63;;;9.20;;
2041;SDS011;1026;51.460;7.252;2023-03-01T08:59:04;14.37;;;10.30;;
2041;SDS011;1026;51.460;7.252;2023-03-01T09:01:29;12.97;;;8.87;;
2041;SDS011;1026;51.460;7.252;2023-03-01T09:03:55;12.53;;;8.03;;
2041;SDS011;1026;51.460;7.252;2023-03-01T09:06:21;13.30;;;8.10;;
2041;SDS011;1026;51.460;7.252;2023-03-01T09:08:47;12.03;;;8.57;;
2041;SDS011;1026;51.460;7.252;2023-03-01T09:11:16;10.73;;;8.50;;
2041;SDS011;1026;51.460;7.252;2023-03-01T09:13:44;10.73;;;8.80;;
2041;SDS011;1026;51.460;7.252;2023-03-01T09:16:12;9.53;;;7.60;;
2041;SDS011;1026;51.460;7.252;2023-03-01T09:18:39;12.50;;;7.97;;
2041;SDS011;1026;51.460;7.252;2023-03-01T09:21:06;14.00;;;8.40;;
2041;SDS011;1026;51.460;7.252;2023-03-01T09:23:35;9.50;;;7.80;;
2041;SDS011;1026;51.460;7.252;2023-03-01T09:26:03;7.93;;;6.73;;
2041;SDS011;1026;51.460;7.252;2023-03-01T09:28:31;7.97;;;6.60;;
2041;SDS011;1026;51.460;7.252;2023-03-01T09:30:58;8.30;;;6.63;;
2041;SDS011;1026;51.460;7.252;2023-03-01T09:33:24;9.10;;;7.10;;
2041;SDS011;1026;51.460;7.252;2023-03-01T09:35:55;11.07;;;7.60;;
2041;SDS011;1026;51.460;7.252;2023-03-01T09:38:22;8.33;;;7.10;;
2041;SDS011;1026;51.460;7.252;2023-03-01T09:40:47;8.53;;;7.00;;
2041;SDS011;1026;51.460;7.252;2023-03-01T09:43:20;8.03;;;6.27;;
2041;SDS011;1026;51.460;7.252;2023-03-01T09:45:53;8.20;;;6.60;;
2041;SDS011;1026;51.460;7.252;2023-03-01T09:48:21;7.63;;;6.83;;
2041;SDS011;1026;51.460;7.252;2023-03-01T09:50:50;7.97;;;6.40;;
2041;SDS011;1026;51.460;7.252;2023-03-01T09:53:18;8.93;;;6.80;;
2041;SDS011;1026;51.460;7.252;2023-03-01T09:55:54;8.13;;;6.43;;
2041;SDS011;1026;51.460;7.252;2023-03-01T10:01:30;8.87;;;5.87;;
2041;SDS011;1026;51.460;7.252;2023-03-01T10:04:04;8.07;;;7.20;;
2041;SDS011;1026;51.460;7.252;2023-03-01T10:06:30;7.97;;;6.33;;
2041;SDS011;1026;51.460;7.252;2023-03-01T10:08:58;10.40;;;7.20;;
2041;SDS011;1026;51.460;7.252;2023-03-01T10:11:30;8.20;;;6.60;;
2041;SDS011;1026;51.460;7.252;2023-03-01T10:14:03;7.43;;;6.33;;
2041;SDS011;1026;51.460;7.252;2023-03-01T10:16:48;8.67;;;6.90;;
2041;SDS011;1026;51.460;7.252;2023-03-01T10:19:22;7.60;;;5.80;;
2041;SDS011;1026;51.460;7.252;2023-03-01T10:21:52;10.43;;;5.70;;
2041;SDS011;1026;51.460;7.252;2023-03-01T10:24:19;6.47;;;5.73;;
2041;SDS011;1026;51.460;7.252;2023-03-01T10:29:12;7.50;;;6.67;;
2041;SDS011;1026;51.460;7.252;2023-03-01T10:37:08;7.43;;;5.30;;
2041;SDS011;1026;51.460;7.252;2023-03-01T10:42:27;9.03;;;6.87;;
2041;SDS011;1026;51.460;7.252;2023-03-01T10:44:55;8.30;;;6.13;;
2041;SDS011;1026;51.460;7.252;2023-03-01T10:47:22;10.07;;;7.40;;
2041;SDS011;1026;51.460;7.252;2023-03-01T10:49:58;5.87;;;5.30;;
2041;SDS011;1026;51.460;7.252;2023-03-01T10:52:26;7.10;;;6.40;;
2041;SDS011;1026;51.460;7.252;2023-03-01T10:54:57;8.37;;;5.60;;
2041;SDS011;1026;51.460;7.252;2023-03-01T10:57:27;9.20;;;6.53;;
2041;SDS011;1026;51.460;7.252;2023-03-01T11:00:00;9.73;;;5.40;;
2041;SDS011;1026;51.460;7.252;2023-03-01T11:02:41;8.30;;;6.27;;
2041;SDS011;1026;51.460;7.252;2023-03-01T11:05:17;7.60;;;5.50;;
2041;SDS011;1026;51.460;7.252;2023-03-01T11:07:48;9.57;;;6.90;;
2041;SDS011;1026;51.460;7.252;2023-03-01T11:10:18;9.17;;;6.80;;
2041;SDS011;1026;51.460;7.252;2023-03-01T11:12:45;6.10;;;4.63;;
2041;SDS011;1026;51.460;7.252;2023-03-01T11:15:20;7.87;;;7.07;;
2041;SDS011;1026;51.460;7.252;2023-03-01T11:17:48;7.00;;;6.30;;
2041;SDS011;1026;51.460;7.252;2023-03-01T11:22:50;7.27;;;5.53;;
2041;SDS011;1026;51.460;7.252;2023-03-01T11:25:23;9.60;;;6.23;;
2041;SDS011;1026;51.460;7.252;2023-03-01T11:27:52;9.13;;;6.00;;
2041;SDS011;1026;51.460;7.252;2023-03-01T11:35:41;8.23;;;6.40;;
2041;SDS011;1026;51.460;7.252;2023-03-01T11:38:16;9.97;;;6.40;;
2041;SDS011;1026;51.460;7.252;2023-03-01T11:45:55;6.50;;;5.77;;
2041;SDS011;1026;51.460;7.252;2023-03-01T11:48:43;8.27;;;6.50;;
2041;SDS011;1026;51.460;7.252;2023-03-01T11:51:41;9.10;;;6.47;;
2041;SDS011;1026;51.460;7.252;2023-03-01T12:02:34;7.00;;;6.30;;
2041;SDS011;1026;51.460;7.252;2023-03-01T12:05:07;7.03;;;5.67;;
2041;SDS011;1026;51.460;7.252;2023-03-01T12:07:59;8.93;;;7.50;;
2041;SDS011;1026;51.460;7.252;2023-03-01T12:10:30;6.47;;;5.57;;
2041;SDS011;1026;51.460;7.252;2023-03-01T12:13:18;10.50;;;7.30;;
2041;SDS011;1026;51.460;7.252;2023-03-01T12:21:23;9.80;;;5.90;;
2041;SDS011;1026;51.460;7.252;2023-03-01T12:27:00;10.40;;;6.20;;
2041;SDS011;1026;51.460;7.252;2023-03-01T12:29:49;9.93;;;7.00;;
2041;SDS011;1026;51.460;7.252;2023-03-01T12:38:19;8.40;;;6.40;;
2041;SDS011;1026;51.460;7.252;2023-03-01T12:41:11;7.80;;;5.10;;
2041;SDS011;1026;51.460;7.252;2023-03-01T12:51:51;9.30;;;6.73;;
2041;SDS011;1026;51.460;7.252;2023-03-01T12:54:28;11.10;;;7.77;;
2041;SDS011;1026;51.460;7.252;2023-03-01T12:56:59;9.83;;;7.03;;
2041;SDS011;1026;51.460;7.252;2023-03-01T12:59:34;10.57;;;7.60;;
2041;SDS011;1026;51.460;7.252;2023-03-01T13:04:54;9.20;;;7.37;;
2041;SDS011;1026;51.460;7.252;2023-03-01T13:07:41;9.03;;;6.70;;
2041;SDS011;1026;51.460;7.252;2023-03-01T13:10:27;7.80;;;5.73;;
2041;SDS011;1026;51.460;7.252;2023-03-01T13:15:48;10.13;;;7.07;;
2041;SDS011;1026;51.460;7.252;2023-03-01T13:20:45;15.50;;;6.80;;
2041;SDS011;1026;51.460;7.252;2023-03-01T13:26:06;11.17;;;8.20;;
2041;SDS011;1026;51.460;7.252;2023-03-01T13:31:01;11.07;;;7.70;;
2041;SDS011;1026;51.460;7.252;2023-03-01T13:35:54;9.33;;;6.73;;
2041;SDS011;1026;51.460;7.252;2023-03-01T13:41:47;7.70;;;6.90;;
2041;SDS011;1026;51.460;7.252;2023-03-01T13:46:47;12.20;;;7.45;;
2041;SDS011;1026;51.460;7.252;2023-03-01T13:49:14;14.90;;;7.77;;
2041;SDS011;1026;51.460;7.252;2023-03-01T13:51:46;11.88;;;8.20;;
2041;SDS011;1026;51.460;7.252;2023-03-01T13:54:14;11.00;;;7.47;;
2041;SDS011;1026;51.460;7.252;2023-03-01T13:56:41;8.57;;;6.50;;
2041;SDS011;1026;51.460;7.252;2023-03-01T13:59:13;6.97;;;5.37;;
2041;SDS011;1026;51.460;7.252;2023-03-01T14:01:41;10.40;;;7.47;;
2041;SDS011;1026;51.460;7.252;2023-03-01T14:06:50;9.20;;;6.80;;
2041;SDS011;1026;51.460;7.252;2023-03-01T14:09:25;9.03;;;6.60;;
2041;SDS011;1026;51.460;7.252;2023-03-01T14:12:02;9.00;;;5.30;;
2041;SDS011;1026;51.460;7.252;2023-03-01T14:14:46;12.43;;;6.70;;
2041;SDS011;1026;51.460;7.252;2023-03-01T14:17:21;8.27;;;6.90;;
2041;SDS011;1026;51.460;7.252;2023-03-01T14:19:56;7.53;;;6.60;;
2041;SDS011;1026;51.460;7.252;2023-03-01T14:22:24;9.80;;;6.97;;
2041;SDS011;1026;51.460;7.252;2023-03-01T14:24:54;9.77;;;6.30;;
2041;SDS011;1026;51.460;7.252;2023-03-01T14:27:25;8.63;;;6.47;;
2041;SDS011;1026;51.460;7.252;2023-03-01T14:29:57;8.40;;;6.67;;
2041;SDS011;1026;51.460;7.252;2023-03-01T14:32:26;9.10;;;6.40;;
2041;SDS011;1026;51.460;7.252;2023-03-01T14:34:53;8.57;;;6.73;;
2041;SDS011;1026;51.460;7.252;2023-03-01T14:37:22;11.30;;;6.33;;
2041;SDS011;1026;51.460;7.252;2023-03-01T14:39:50;9.93;;;6.57;;
2041;SDS011;1026;51.460;7.252;2023-03-01T14:42:17;8.10;;;5.50;;
2041;SDS011;1026;51.460;7.252;2023-03-01T14:44:45;8.40;;;5.60;;
2041;SDS011;1026;51.460;7.252;2023-03-01T14:47:14;5.47;;;4.70;;
2041;SDS011;1026;51.460;7.252;2023-03-01T14:49:44;6.40;;;5.20;;
2041;SDS011;1026;51.460;7.252;2023-03-01T14:52:19;7.80;;;5.40;;
2041;SDS011;1026;51.460;7.252;2023-03-01T14:54:48;14.90;;;6.90;;
2041;SDS011;1026;51.460;7.252;2023-03-01T14:57:19;8.87;;;5.07;;
2041;SDS011;1026;51.460;7.252;2023-03-01T14:59:46;6.80;;;6.03;;
2041;SDS011;1026;51.460;7.252;2023-03-01T15:02:15;9.93;;;5.77;;
2041;SDS011;1026;51.460;7.252;2023-03-01T15:04:45;7.80;;;5.80;;
2041;SDS011;1026;51.460;7.252;2023-03-01T15:07:13;11.37;;;6.63;;
2041;SDS011;1026;51.460;7.252;2023-03-01T15:09:40;6.50;;;5.10;;
2041;SDS011;1026;51.460;7.252;2023-03-01T15:17:48;8.80;;;6.50;;
2041;SDS011;1026;51.460;7.252;2023-03-01T15:20:20;7.40;;;5.67;;
2041;SDS011;1026;51.460;7.252;2023-03-01T15:22:50;7.20;;;5.33;;
2041;SDS011;1026;51.460;7.252;2023-03-01T15:25:18;10.30;;;5.03;;
2041;SDS011;1026;51.460;7.252;2023-03-01T15:27:46;6.30;;;5.10;;
2041;SDS011;1026;51.460;7.252;2023-03-01T15:30:17;9.70;;;6.17;;
2041;SDS011;1026;51.460;7.252;2023-03-01T15:32:47;9.17;;;5.83;;
2041;SDS011;1026;51.460;7.252;2023-03-01T15:37:58;9.67;;;5.90;;
2041;SDS011;1026;51.460;7.252;2023-03-01T15:43:04;9.50;;;5.67;;
2041;SDS011;1026;51.460;7.252;2023-03-01T15:45:31;6.93;;;5.37;;
2041;SDS011;1026;51.460;7.252;2023-03-01T15:48:13;7.23;;;5.03;;
2041;SDS011;1026;51.460;7.252;2023-03-01T15:50:42;8.07;;;5.80;;
2041;SDS011;1026;51.460;7.252;2023-03-01T15:53:11;6.67;;;4.10;;
2041;SDS011;1026;51.460;7.252;2023-03-01T15:55:39;4.60;;;4.10;;
2041;SDS011;1026;51.460;7.252;2023-03-01T15:58:09;9.50;;;5.53;;
2041;SDS011;1026;51.460;7.252;2023-03-01T16:00:36;6.27;;;5.57;;
2041;SDS011;1026;51.460;7.252;2023-03-01T16:03:02;8.90;;;5.23;;
2041;SDS011;1026;51.460;7.252;2023-03-01T16:05:29;6.07;;;4.40;;
2041;SDS011;1026;51.460;7.252;2023-03-01T16:07:56;7.00;;;5.10;;
2041;SDS011;1026;51.460;7.252;2023-03-01T16:10:22;6.37;;;4.97;;
2041;SDS011;1026;51.460;7.252;2023-03-01T16:12:49;6.60;;;4.77;;
2041;SDS011;1026;51.460;7.252;2023-03-01T16:15:26;5.80;;;4.97;;
2041;SDS011;1026;51.460;7.252;2023-03-01T16:17:55;6.53;;;5.73;;
2041;SDS011;1026;51.460;7.252;2023-03-01T16:20:22;7.10;;;4.87;;
2041;SDS011;1026;51.460;7.252;2023-03-01T16:22:49;9.10;;;5.00;;
2041;SDS011;1026;51.460;7.252;2023-03-01T16:25:16;8.93;;;5.57;;
2041;SDS011;1026;51.460;7.252;2023-03-01T16:27:44;8.10;;;5.67;;
2041;SDS011;1026;51.460;7.252;2023-03-01T16:30:11;6.13;;;5.17;;
2041;SDS011;1026;51.460;7.252;2023-03-01T16:32:39;7.20;;;5.40;;
2041;SDS011;1026;51.460;7.252;2023-03-01T16:35:07;9.77;;;5.97;;
2041;SDS011;1026;51.460;7.252;2023-03-01T16:37:41;7.37;;;5.33;;
2041;SDS011;1026;51.460;7.252;2023-03-01T16:40:15;9.03;;;5.60;;
2041;SDS011;1026;51.460;7.252;2023-03-01T16:42:44;5.70;;;4.27;;
2041;SDS011;1026;51.460;7.252;2023-03-01T16:45:10;6.00;;;5.00;;
2041;SDS011;1026;51.460;7.252;2023-03-01T16:47:36;7.33;;;4.57;;
2041;SDS011;1026;51.460;7.252;2023-03-01T16:50:01;8.80;;;5.23;;
2041;SDS011;1026;51.460;7.252;2023-03-01T16:52:27;6.40;;;5.13;;
2041;SDS011;1026;51.460;7.252;2023-03-01T16:54:53;7.90;;;5.20;;
2041;SDS011;1026;51.460;7.252;2023-03-01T16:57:19;6.10;;;4.23;;
2041;SDS011;1026;51.460;7.252;2023-03-01T16:59:44;5.30;;;4.30;;
2041;SDS011;1026;51.460;7.252;2023-03-01T17:02:11;5.33;;;4.40;;
2041;SDS011;1026;51.460;7.252;2023-03-01T17:04:39;5.67;;;4.53;;
2041;SDS011;1026;51.460;7.252;2023-03-01T17:07:05;10.97;;;5.63;;